createdAt,value
2023-04-16T00:00:48.421Z,102064.13
2023-04-16T00:05:55.701Z,102071.78
2023-04-16T00:11:02.344Z,102064.44
2023-04-16T00:16:04.284Z,102059.50
2023-04-16T00:21:11.300Z,102066.44
2023-04-16T00:26:13.010Z,102072.03
2023-04-16T00:31:26.899Z,102071.31
2023-04-16T00:36:29.020Z,102083.38
2023-04-16T00:41:30.939Z,102083.50
2023-04-16T00:46:38.334Z,102088.22
2023-04-16T00:51:42.448Z,102087.38
2023-04-16T00:56:49.806Z,102092.59
2023-04-16T01:01:51.704Z,102092.97
2023-04-16T01:07:01.014Z,102095.09
2023-04-16T01:12:05.295Z,102098.34
2023-04-16T01:17:07.005Z,102102.69
2023-04-16T01:22:08.714Z,102110.09
2023-04-16T01:27:10.540Z,102111.78
2023-04-16T01:32:12.321Z,102109.47
2023-04-16T01:37:17.720Z,102114.94
2023-04-16T01:42:21.068Z,102110.50
2023-04-16T01:47:27.780Z,102109.88
2023-04-16T01:52:29.675Z,102110.28
2023-04-16T01:57:31.842Z,102121.13
2023-04-16T02:02:36.373Z,102115.75
2023-04-16T02:07:40.692Z,102125.84
2023-04-16T02:12:44.752Z,102128.44
2023-04-16T02:17:56.930Z,102128.00
2023-04-16T02:23:00.454Z,102132.09
2023-04-16T02:28:05.277Z,102128.78
2023-04-16T02:33:14.460Z,102129.94
2023-04-16T02:38:28.414Z,102141.03
2023-04-16T02:43:30.243Z,102130.84
2023-04-16T02:48:36.711Z,102139.16
2023-04-16T02:53:40.584Z,102145.91
2023-04-16T02:58:42.382Z,102156.41
2023-04-16T03:03:46.449Z,102152.78
2023-04-16T03:08:48.319Z,102156.28
2023-04-16T03:13:52.490Z,102159.69
2023-04-16T03:18:56.708Z,102168.50
2023-04-16T03:23:58.401Z,102164.16
2023-04-16T03:29:00.167Z,102170.91
2023-04-16T03:34:06.186Z,102168.69
2023-04-16T03:39:08.607Z,102169.53
2023-04-16T03:44:13.944Z,102159.88
2023-04-16T03:49:21.087Z,102167.97
2023-04-16T03:54:25.472Z,102175.13
2023-04-16T03:59:36.009Z,102188.59
2023-04-16T04:04:40.251Z,102187.88
2023-04-16T04:09:51.240Z,102186.44
2023-04-16T04:14:53.001Z,102192.88
2023-04-16T04:20:01.660Z,102196.66
2023-04-16T04:25:12.135Z,102197.28
2023-04-16T04:30:13.908Z,102208.63
2023-04-16T04:35:16.636Z,102210.44
2023-04-16T04:40:21.052Z,102211.59
2023-04-16T04:45:30.371Z,102215.28
2023-04-16T04:50:36.790Z,102225.88
2023-04-16T04:55:41.030Z,102220.06
2023-04-16T05:00:48.614Z,102224.59
2023-04-16T05:05:50.490Z,102222.13
2023-04-16T05:10:57.208Z,102228.03
2023-04-16T05:15:58.892Z,102232.41
2023-04-16T05:21:03.817Z,102237.91
2023-04-16T05:26:08.115Z,102243.19
2023-04-16T05:31:14.274Z,102240.44
2023-04-16T05:36:16.148Z,102243.16
2023-04-16T05:41:20.398Z,102252.06
2023-04-16T05:46:22.269Z,102253.69
2023-04-16T05:51:27.638Z,102254.28
2023-04-16T05:56:29.334Z,102256.69
2023-04-16T06:01:32.795Z,102264.66
2023-04-16T06:06:37.456Z,102264.38
2023-04-16T06:11:39.293Z,102267.81
2023-04-16T06:16:41.057Z,102272.31
2023-04-16T06:21:47.648Z,102270.50
2023-04-16T06:26:49.336Z,102275.84
2023-04-16T06:31:51.234Z,102284.44
2023-04-16T06:36:52.996Z,102282.50
2023-04-16T06:41:57.478Z,102295.72
2023-04-16T06:46:59.214Z,102287.28
2023-04-16T06:52:00.992Z,102299.66
2023-04-16T06:57:02.829Z,102299.06
2023-04-16T07:02:11.100Z,102297.63
2023-04-16T07:07:12.953Z,102299.03
2023-04-16T07:12:14.683Z,102300.66
2023-04-16T07:17:16.738Z,102310.34
2023-04-16T07:22:20.907Z,102313.75
2023-04-16T07:27:27.175Z,102317.19
2023-04-16T07:32:31.187Z,102315.19
2023-04-16T07:37:32.910Z,102327.56
2023-04-16T07:42:37.812Z,102324.38
2023-04-16T07:47:39.654Z,102326.41
2023-04-16T07:52:45.325Z,102332.84
2023-04-16T07:57:49.305Z,102334.94
2023-04-16T08:02:51.230Z,102343.34
2023-04-16T08:07:53.046Z,102351.94
2023-04-16T08:12:57.189Z,102359.53
2023-04-16T08:18:01.540Z,102359.97
2023-04-16T08:23:03.405Z,102368.94
2023-04-16T08:28:05.503Z,102371.19
2023-04-16T08:33:07.298Z,102365.84
2023-04-16T08:38:11.520Z,102370.94
2023-04-16T08:43:15.557Z,102387.53
2023-04-16T08:48:20.027Z,102372.06
2023-04-16T08:53:55.537Z,102378.22
2023-04-16T08:59:03.110Z,102384.16
2023-04-16T09:04:05.425Z,102384.53
2023-04-16T09:09:11.845Z,102376.00
2023-04-16T09:14:13.902Z,102388.31
2023-04-16T09:19:20.471Z,102393.41
2023-04-16T09:24:22.251Z,102390.69
2023-04-16T09:29:37.775Z,102397.59
2023-04-16T09:34:59.437Z,102398.59
2023-04-16T09:40:05.445Z,102395.69
2023-04-16T09:45:07.567Z,102398.22
2023-04-16T09:50:18.623Z,102397.84
2023-04-16T09:55:23.985Z,102404.72
2023-04-16T10:00:34.449Z,102400.66
2023-04-16T10:05:38.427Z,102405.25
2023-04-16T10:10:42.677Z,102404.13
2023-04-16T10:15:48.135Z,102406.25
2023-04-16T10:20:51.086Z,102405.25
2023-04-16T10:25:57.765Z,102405.53
2023-04-16T10:30:59.974Z,102402.50
2023-04-16T10:36:18.575Z,102395.81
2023-04-16T10:41:21.148Z,102403.84
2023-04-16T10:46:26.931Z,102405.22
2023-04-16T10:51:37.301Z,102407.06
2023-04-16T10:56:44.507Z,102404.47
2023-04-16T11:01:54.273Z,102402.44
2023-04-16T11:07:18.410Z,102409.63
2023-04-16T11:12:34.720Z,102417.19
2023-04-16T11:17:43.977Z,102417.22
2023-04-16T11:22:54.677Z,102406.66
2023-04-16T11:27:59.177Z,102407.88
2023-04-16T11:33:11.303Z,102409.81
2023-04-16T11:38:13.037Z,102422.16
2023-04-16T11:43:19.196Z,102412.44
2023-04-16T11:48:23.135Z,102410.66
2023-04-16T11:53:24.969Z,102408.72
2023-04-16T11:58:28.974Z,102415.06
2023-04-16T12:03:48.818Z,102416.91
2023-04-16T12:08:53.088Z,102414.91
2023-04-16T12:14:13.183Z,102425.75
2023-04-16T12:19:17.884Z,102425.88
2023-04-16T12:24:27.545Z,102426.78
2023-04-16T12:29:29.290Z,102423.97
2023-04-16T12:34:48.933Z,102427.47
2023-04-16T12:39:56.091Z,102425.72
2023-04-16T12:44:57.864Z,102433.00
2023-04-16T12:49:59.695Z,102440.47
2023-04-16T12:55:02.564Z,102443.88
2023-04-16T13:00:08.138Z,102442.97
2023-04-16T13:05:17.252Z,102450.22
2023-04-16T13:10:22.100Z,102446.59
2023-04-16T13:15:28.900Z,102437.97
2023-04-16T13:20:30.673Z,102442.34
2023-04-16T13:25:34.495Z,102438.66
2023-04-16T13:30:36.358Z,102450.38
2023-04-16T13:35:38.121Z,102448.34
2023-04-16T13:40:39.900Z,102451.88
2023-04-16T13:45:41.710Z,102457.72
2023-04-16T13:50:52.069Z,102450.19
2023-04-16T13:56:07.140Z,102454.34
2023-04-16T14:01:11.556Z,102454.53
2023-04-16T14:06:18.016Z,102454.25
2023-04-16T14:11:24.698Z,102453.16
2023-04-16T14:16:27.486Z,102456.22
2023-04-16T14:21:30.061Z,102458.34
2023-04-16T14:26:31.883Z,102456.69
2023-04-16T14:31:36.792Z,102462.34
2023-04-16T14:36:38.568Z,102455.19
2023-04-16T14:41:40.495Z,102453.19
2023-04-16T14:46:42.600Z,102448.34
2023-04-16T14:51:45.493Z,102448.06
2023-04-16T14:56:50.384Z,102456.03
2023-04-16T15:01:55.122Z,102444.25
2023-04-16T15:06:59.084Z,102452.81
2023-04-16T15:12:03.074Z,102456.03
2023-04-16T15:17:04.882Z,102447.31
2023-04-16T15:22:09.539Z,102449.72
2023-04-16T15:27:14.715Z,102461.47
2023-04-16T15:32:16.606Z,102454.78
2023-04-16T15:37:18.542Z,102459.03
2023-04-16T15:42:20.309Z,102458.44
2023-04-16T15:47:22.093Z,102463.00
2023-04-16T15:52:23.868Z,102470.41
2023-04-16T15:57:25.649Z,102467.34
2023-04-16T16:02:29.816Z,102464.00
2023-04-16T16:07:34.286Z,102465.19
2023-04-16T16:12:36.428Z,102474.47
2023-04-16T16:17:40.898Z,102476.13
2023-04-16T16:22:46.660Z,102472.53
2023-04-16T16:27:48.390Z,102476.81
2023-04-16T16:32:50.875Z,102480.06
2023-04-16T16:37:57.285Z,102480.09
2023-04-16T16:43:01.838Z,102477.34
2023-04-16T16:48:07.160Z,102485.78
2023-04-16T16:53:11.316Z,102491.47
2023-04-16T16:58:13.295Z,102491.66
2023-04-16T17:03:15.268Z,102500.59
2023-04-16T17:08:17.139Z,102506.81
2023-04-16T17:13:20.643Z,102505.78
2023-04-16T17:18:22.372Z,102502.72
2023-04-16T17:23:24.226Z,102498.44
2023-04-16T17:28:28.242Z,102505.03
2023-04-16T17:33:40.111Z,102504.13
2023-04-16T17:38:46.218Z,102509.56
2023-04-16T17:43:49.677Z,102511.97
2023-04-16T17:48:53.694Z,102511.50
2023-04-16T17:53:55.423Z,102523.22
2023-04-16T17:58:59.332Z,102531.41
2023-04-16T18:04:01.129Z,102537.59
2023-04-16T18:09:05.754Z,102547.69
2023-04-16T18:14:09.927Z,102551.09
2023-04-16T18:19:14.046Z,102547.06
2023-04-16T18:24:18.046Z,102554.19
2023-04-16T18:29:24.265Z,102553.81
2023-04-16T18:34:32.265Z,102564.06
2023-04-16T18:39:34.086Z,102557.75
2023-04-16T18:44:36.239Z,102561.84
2023-04-16T18:49:37.975Z,102572.13
2023-04-16T18:54:40.935Z,102560.09
2023-04-16T18:59:44.972Z,102574.34
2023-04-16T19:04:46.706Z,102577.91
2023-04-16T19:09:48.464Z,102587.69
2023-04-16T19:14:52.700Z,102598.56
2023-04-16T19:19:59.164Z,102594.94
2023-04-16T19:25:00.912Z,102603.13
2023-04-16T19:30:03.571Z,102600.44
2023-04-16T19:35:08.186Z,102606.81
2023-04-16T19:40:10.267Z,102613.06
2023-04-16T19:45:17.658Z,102610.44
2023-04-16T19:50:20.132Z,102616.38
2023-04-16T19:55:24.062Z,102622.19
2023-04-16T20:00:30.815Z,102625.28
2023-04-16T20:05:32.839Z,102624.63
2023-04-16T20:10:37.344Z,102626.53
2023-04-16T20:15:43.541Z,102631.34
2023-04-16T20:20:45.294Z,102639.28
2023-04-16T20:25:47.242Z,102633.91
2023-04-16T20:30:51.353Z,102639.16
2023-04-16T20:35:57.597Z,102639.28
2023-04-16T20:41:11.020Z,102637.44
2023-04-16T20:46:15.768Z,102631.25
2023-04-16T20:51:17.782Z,102643.09
2023-04-16T20:56:21.990Z,102643.53
2023-04-16T21:01:26.334Z,102634.91
2023-04-16T21:06:33.079Z,102639.72
2023-04-16T21:11:37.085Z,102638.03
2023-04-16T21:16:41.576Z,102644.53
2023-04-16T21:21:43.453Z,102645.78
2023-04-16T21:26:47.276Z,102655.38
2023-04-16T21:31:49.089Z,102659.31
2023-04-16T21:36:55.474Z,102662.97
2023-04-16T21:41:59.545Z,102660.28
2023-04-16T21:47:03.568Z,102666.59
2023-04-16T21:52:18.117Z,102664.34
2023-04-16T21:57:22.090Z,102663.09
2023-04-16T22:02:24.206Z,102670.97
2023-04-16T22:07:28.959Z,102669.00
2023-04-16T22:12:39.827Z,102670.25
2023-04-16T22:17:45.546Z,102672.94
2023-04-16T22:22:49.692Z,102668.16
2023-04-16T22:27:52.578Z,102666.97
2023-04-16T22:32:54.362Z,102674.16
2023-04-16T22:37:59.061Z,102666.53
2023-04-16T22:43:02.797Z,102676.22
2023-04-16T22:48:07.068Z,102671.69
2023-04-16T22:53:16.074Z,102664.34
2023-04-16T22:58:17.895Z,102666.28
2023-04-16T23:03:24.543Z,102675.19
2023-04-16T23:08:31.066Z,102663.78
2023-04-16T23:13:35.646Z,102668.94
2023-04-16T23:18:37.304Z,102665.56
2023-04-16T23:23:38.974Z,102670.91
2023-04-16T23:28:42.877Z,102668.53
2023-04-16T23:33:46.879Z,102676.97
2023-04-16T23:38:51.068Z,102680.75
2023-04-16T23:43:52.901Z,102680.47
2023-04-16T23:48:55.431Z,102679.63
2023-04-16T23:53:57.262Z,102677.09
2023-04-16T23:59:03.735Z,102683.16
